Time;durP1;ratioP1;P1;durP2;ratioP2;P2;SDS_P1;SDS_P2;PMS_P1;PMS_P2;Temp;Humidity;BMP_temperature;BMP_pressure;BME280_temperature;BME280_humidity;BME280_pressure;Samples;Min_cycle;Max_cycle;Signal;HPM_P1;HPM_P2
2023/08/08 00:00:47;;;;;;;4.05;2.10;;;;;;;13.71;93.58;101228.63;5019260;28;20114;-67
2023/08/08 00:03:13;;;;;;;6.35;2.08;;;;;;;13.70;93.77;101226.97;5022565;28;20935;-67
2023/08/08 00:05:38;;;;;;;3.67;2.17;;;;;;;13.63;94.14;101219.00;5020464;28;20037;-67
2023/08/08 00:08:04;;;;;;;5.28;1.83;;;;;;;13.57;94.61;101218.84;5022319;28;20526;-67
2023/08/08 00:10:30;;;;;;;3.75;2.00;;;;;;;13.55;94.95;101215.59;5009623;28;20049;-68
2023/08/08 00:12:55;;;;;;;4.60;2.30;;;;;;;13.61;94.67;101209.72;5018271;28;20033;-68
2023/08/08 00:15:21;;;;;;;6.65;2.00;;;;;;;13.62;94.62;101206.16;5016391;28;20117;-68
2023/08/08 00:17:46;;;;;;;3.58;2.05;;;;;;;13.56;95.12;101206.78;5019079;28;20045;-67
2023/08/08 00:20:12;;;;;;;4.63;2.08;;;;;;;13.50;95.49;101207.47;5019083;28;20038;-67
2023/08/08 00:22:37;;;;;;;6.72;2.38;;;;;;;13.50;95.61;101202.25;5021790;28;20535;-67
2023/08/08 00:25:03;;;;;;;4.05;2.45;;;;;;;13.44;95.61;101199.31;5019173;28;20487;-67
2023/08/08 00:27:29;;;;;;;5.75;2.72;;;;;;;13.40;95.87;101192.00;5018590;28;20069;-68
2023/08/08 00:29:54;;;;;;;3.63;2.00;;;;;;;13.40;96.19;101190.22;5017842;28;22415;-67
2023/08/08 00:32:20;;;;;;;10.25;2.30;;;;;;;13.37;96.59;101197.53;5018568;28;20050;-67
2023/08/08 00:34:45;;;;;;;4.07;2.17;;;;;;;13.32;96.80;101187.63;5018618;28;20097;-69
2023/08/08 00:37:11;;;;;;;6.70;2.38;;;;;;;13.31;96.95;101190.41;5018147;28;20463;-70
2023/08/08 00:39:36;;;;;;;5.45;2.45;;;;;;;13.28;97.33;101199.31;5019461;28;20076;-67
2023/08/08 00:42:02;;;;;;;5.75;2.53;;;;;;;13.25;97.62;101197.03;5024649;28;20041;-68
2023/08/08 00:44:28;;;;;;;4.10;2.80;;;;;;;13.25;97.69;101197.84;5019610;28;20073;-67
2023/08/08 00:46:54;;;;;;;5.05;3.00;;;;;;;13.29;97.43;101200.94;5020092;28;20025;-67
2023/08/08 00:49:19;;;;;;;5.88;2.53;;;;;;;13.27;97.66;101196.88;5025260;28;20033;-67
2023/08/08 00:51:46;;;;;;;5.57;2.35;;;;;;;13.16;98.23;101198.03;5007112;28;20516;-69
2023/08/08 00:54:13;;;;;;;4.32;2.45;;;;;;;13.16;98.52;101200.63;5019411;28;20696;-70
2023/08/08 00:56:38;;;;;;;6.03;2.53;;;;;;;13.12;98.86;101197.53;5003195;28;20131;-68
2023/08/08 00:59:04;;;;;;;7.68;2.38;;;;;;;13.16;98.85;101198.81;5002249;28;20037;-67
2023/08/08 01:01:29;;;;;;;7.50;2.50;;;;;;;13.10;99.18;101191.66;5001253;28;20673;-68
2023/08/08 01:03:55;;;;;;;5.72;2.63;;;;;;;13.11;99.32;101198.53;5001508;28;20369;-70
2023/08/08 01:06:47;;;;;;;15.18;3.38;;;;;;;13.08;99.26;101192.81;5001234;28;20064;-66
2023/08/08 01:09:29;;;;;;;7.45;2.72;;;;;;;13.13;99.25;101196.56;5003435;28;20091;-67
2023/08/08 01:11:56;;;;;;;6.63;2.33;;;;;;;13.07;99.45;101185.97;4999660;28;20501;-67
2023/08/08 01:14:25;;;;;;;2.72;1.77;;;;;;;13.00;100.00;101197.03;5002930;28;20030;-67
2023/08/08 01:16:51;;;;;;;5.78;2.53;;;;;;;12.98;100.00;101196.41;5003005;28;20536;-67
2023/08/08 01:19:27;;;;;;;5.50;2.55;;;;;;;12.98;100.00;101204.19;4999027;28;20121;-67
2023/08/08 01:21:54;;;;;;;5.60;2.50;;;;;;;12.96;100.00;101202.72;4995132;28;20042;-67
2023/08/08 01:24:21;;;;;;;5.32;2.45;;;;;;;12.95;100.00;101201.91;5000847;28;20020;-67
2023/08/08 01:26:47;;;;;;;5.53;2.63;;;;;;;12.94;100.00;101197.69;4997256;28;20038;-67
2023/08/08 01:29:13;;;;;;;5.78;2.63;;;;;;;12.93;100.00;101198.66;4997128;28;20053;-67
2023/08/08 01:31:39;;;;;;;6.53;2.80;;;;;;;12.93;100.00;101192.66;4998174;28;20038;-67
2023/08/08 01:34:04;;;;;;;6.45;2.67;;;;;;;12.91;100.00;101192.00;4999952;28;20049;-67
2023/08/08 01:36:46;;;;;;;5.10;2.30;;;;;;;12.91;100.00;101187.59;5005596;28;20080;-69
2023/08/08 01:39:16;;;;;;;5.68;2.40;;;;;;;12.99;100.00;101192.81;5016559;28;20045;-69
2023/08/08 01:41:44;;;;;;;7.57;2.47;;;;;;;12.94;100.00;101189.88;5017365;28;20178;-69
2023/08/08 01:44:10;;;;;;;7.43;2.50;;;;;;;12.97;100.00;101188.75;5011016;28;20419;-70
2023/08/08 01:46:38;;;;;;;4.22;2.20;;;;;;;12.98;100.00;101182.56;5001271;28;20473;-70
2023/08/08 01:49:04;;;;;;;6.15;2.53;;;;;;;12.96;100.00;101171.47;4998457;28;20080;-70
2023/08/08 01:51:29;;;;;;;4.43;2.42;;;;;;;12.94;100.00;101171.66;5007304;28;20799;-69
2023/08/08 01:53:55;;;;;;;6.85;2.22;;;;;;;12.94;100.00;101169.06;5018842;28;20040;-68
2023/08/08 01:56:20;;;;;;;4.32;2.50;;;;;;;12.88;100.00;101166.28;5016295;28;20038;-68
2023/08/08 01:58:46;;;;;;;4.63;2.17;;;;;;;12.85;100.00;101172.63;5018581;28;20044;-67
2023/08/08 02:01:11;;;;;;;6.32;2.50;;;;;;;12.87;100.00;101173.28;5015760;28;20207;-68
2023/08/08 02:03:37;;;;;;;11.98;2.80;;;;;;;12.80;100.00;101165.31;5021793;28;20043;-67
2023/08/08 02:06:03;;;;;;;5.05;2.28;;;;;;;12.84;100.00;101165.78;5017434;28;20041;-67
2023/08/08 02:08:29;;;;;;;5.85;3.08;;;;;;;12.82;100.00;101163.34;5019727;28;20045;-67
2023/08/08 02:10:54;;;;;;;7.28;2.60;;;;;;;12.82;100.00;101162.53;5016836;28;20037;-67
2023/08/08 02:13:20;;;;;;;7.25;2.42;;;;;;;12.78;100.00;101167.25;5020507;28;20087;-69
2023/08/08 02:15:45;;;;;;;6.50;2.60;;;;;;;12.79;100.00;101166.28;5012458;28;20488;-68
2023/08/08 02:18:11;;;;;;;7.93;1.95;;;;;;;12.84;100.00;101161.41;5019421;28;20431;-69
2023/08/08 02:20:36;;;;;;;8.38;2.70;;;;;;;12.76;100.00;101163.19;5022353;28;20053;-69
2023/08/08 02:23:04;;;;;;;10.13;2.30;;;;;;;12.82;100.00;101158.13;5020431;28;20041;-69
2023/08/08 02:25:31;;;;;;;7.75;2.47;;;;;;;12.81;100.00;101156.53;5015107;28;20037;-69
2023/08/08 02:27:57;;;;;;;4.40;2.08;;;;;;;12.75;100.00;101149.38;5013566;28;20029;-68
2023/08/08 02:30:22;;;;;;;9.80;2.55;;;;;;;12.74;100.00;101152.94;5018304;28;20115;-70
2023/08/08 02:32:48;;;;;;;7.45;2.22;;;;;;;12.67;100.00;101162.38;5014124;28;20459;-70
2023/08/08 02:35:13;;;;;;;7.13;2.55;;;;;;;12.75;100.00;101153.75;5014066;28;20060;-69
2023/08/08 02:37:39;;;;;;;4.40;2.25;;;;;;;12.68;100.00;101150.16;5000282;28;20488;-70
2023/08/08 02:40:06;;;;;;;6.03;2.75;;;;;;;12.66;100.00;101147.75;5001879;28;20076;-70
2023/08/08 02:42:31;;;;;;;6.68;2.28;;;;;;;12.69;100.00;101141.38;5014639;28;20037;-69
2023/08/08 02:44:57;;;;;;;6.97;2.13;;;;;;;12.71;100.00;101142.84;5010347;28;20370;-69
2023/08/08 02:47:23;;;;;;;3.65;1.90;;;;;;;12.73;100.00;101146.09;5016238;28;20690;-69
2023/08/08 02:49:50;;;;;;;6.03;2.22;;;;;;;12.67;100.00;101136.34;5016805;28;20034;-69
2023/08/08 02:52:15;;;;;;;4.93;2.30;;;;;;;12.74;100.00;101133.94;5019431;28;20106;-69
2023/08/08 02:54:41;;;;;;;5.93;2.53;;;;;;;12.75;100.00;101138.13;5015294;28;20439;-69
2023/08/08 02:57:06;;;;;;;5.35;2.30;;;;;;;12.74;100.00;101131.31;5016479;28;20058;-69
2023/08/08 02:59:32;;;;;;;4.53;1.95;;;;;;;12.76;100.00;101131.97;5018309;28;20510;-68
2023/08/08 03:02:01;;;;;;;8.90;2.53;;;;;;;12.82;100.00;101126.13;4999695;28;20030;-67
2023/08/08 03:04:26;;;;;;;10.40;2.33;;;;;;;12.71;100.00;101126.44;4998417;28;20029;-67
2023/08/08 03:06:52;;;;;;;8.13;2.28;;;;;;;12.74;100.00;101121.72;5011771;28;20056;-67
2023/08/08 03:09:19;;;;;;;6.45;1.95;;;;;;;12.68;100.00;101124.97;4996538;28;20026;-67
2023/08/08 03:11:46;;;;;;;10.05;2.10;;;;;;;12.74;100.00;101126.13;5004806;28;20030;-68
2023/08/08 03:14:14;;;;;;;11.35;3.95;;;;;;;12.70;100.00;101125.63;4997053;28;20910;-69
2023/08/08 03:16:40;;;;;;;10.35;2.28;;;;;;;12.66;100.00;101126.94;5000350;28;20044;-69
2023/08/08 03:19:07;;;;;;;6.70;2.55;;;;;;;12.63;100.00;101125.44;4995021;28;20080;-69
2023/08/08 03:21:33;;;;;;;8.05;2.72;;;;;;;12.68;100.00;101119.78;4999835;28;20040;-69
2023/08/08 03:23:59;;;;;;;7.22;2.25;;;;;;;12.67;100.00;101120.72;4994044;28;20219;-68
2023/08/08 03:26:25;;;;;;;6.53;2.55;;;;;;;12.69;100.00;101118.78;4992568;28;20038;-69
2023/08/08 03:28:53;;;;;;;6.43;2.50;;;;;;;12.56;100.00;101123.66;4997323;28;20040;-69
2023/08/08 03:31:23;;;;;;;11.85;2.40;;;;;;;12.56;100.00;101136.66;4997277;28;20568;-69
2023/08/08 03:33:50;;;;;;;4.95;2.15;;;;;;;12.49;100.00;101125.25;5011032;28;20052;-68
2023/08/08 03:36:15;;;;;;;8.07;2.28;;;;;;;12.52;100.00;101127.56;4994785;28;20057;-67
2023/08/08 03:38:44;;;;;;;6.82;2.40;;;;;;;12.51;100.00;101129.34;4993903;28;20030;-66
2023/08/08 03:41:09;;;;;;;8.27;2.40;;;;;;;12.48;100.00;101132.25;5003993;28;20037;-67
2023/08/08 03:43:35;;;;;;;6.90;2.40;;;;;;;12.48;100.00;101134.84;5017095;28;20017;-69
2023/08/08 03:46:00;;;;;;;7.35;2.45;;;;;;;12.38;100.00;101129.81;5016411;28;20515;-69
2023/08/08 03:48:26;;;;;;;9.05;2.33;;;;;;;12.39;100.00;101135.81;5017986;28;20033;-69
2023/08/08 03:50:51;;;;;;;17.27;3.15;;;;;;;12.42;100.00;101128.50;5010335;28;20102;-67
2023/08/08 03:53:16;;;;;;;12.30;2.70;;;;;;;12.52;100.00;101132.75;5016359;28;20091;-70
2023/08/08 03:55:43;;;;;;;13.63;2.67;;;;;;;12.42;100.00;101128.50;5012359;28;20120;-69
2023/08/08 03:58:08;;;;;;;12.65;2.90;;;;;;;12.35;100.00;101127.53;5017320;28;20041;-69
2023/08/08 04:00:34;;;;;;;9.40;3.10;;;;;;;12.36;100.00;101126.56;5011222;28;22332;-67
2023/08/08 04:02:59;;;;;;;5.78;2.40;;;;;;;12.33;100.00;101116.47;4996562;28;20042;-69
2023/08/08 04:05:25;;;;;;;10.98;3.25;;;;;;;12.31;100.00;101125.41;4995998;28;20049;-71
2023/08/08 04:07:51;;;;;;;7.50;3.22;;;;;;;12.42;100.00;101109.50;5011224;28;20033;-69
2023/08/08 04:10:16;;;;;;;17.50;3.50;;;;;;;12.44;100.00;101116.16;5010700;28;20040;-69
2023/08/08 04:12:42;;;;;;;11.27;3.33;;;;;;;12.50;100.00;101117.31;5019010;28;20045;-69
2023/08/08 04:15:07;;;;;;;8.65;3.00;;;;;;;12.46;100.00;101116.00;5015775;28;20037;-67
2023/08/08 04:17:33;;;;;;;9.23;3.03;;;;;;;12.42;100.00;101112.09;5013718;28;20045;-67
2023/08/08 04:19:58;;;;;;;7.15;3.30;;;;;;;12.40;100.00;101114.06;5015692;28;20041;-67
2023/08/08 04:22:24;;;;;;;12.23;4.35;;;;;;;12.42;100.00;101107.72;5011955;28;20037;-67
2023/08/08 04:24:49;;;;;;;9.18;3.28;;;;;;;12.40;100.00;101116.66;5017046;28;20033;-68
2023/08/08 04:27:15;;;;;;;10.27;3.72;;;;;;;12.49;100.00;101107.06;5016317;28;20100;-67
2023/08/08 04:29:40;;;;;;;12.65;3.78;;;;;;;12.51;100.00;101112.91;5016457;28;20033;-68
2023/08/08 04:32:06;;;;;;;11.50;3.80;;;;;;;12.51;100.00;101110.31;5017893;28;20526;-67
2023/08/08 04:34:31;;;;;;;10.05;3.47;;;;;;;12.51;100.00;101110.31;5016309;28;20040;-67
2023/08/08 04:36:57;;;;;;;10.15;4.07;;;;;;;12.62;100.00;101113.44;5015913;28;20569;-68
2023/08/08 04:39:22;;;;;;;9.98;4.20;;;;;;;12.56;100.00;101103.66;5015690;28;20557;-67
2023/08/08 04:41:47;;;;;;;12.52;3.58;;;;;;;12.57;100.00;101105.28;5017878;28;20037;-66
2023/08/08 04:44:13;;;;;;;11.70;4.03;;;;;;;12.58;100.00;101106.09;5020657;28;20021;-69
2023/08/08 04:46:38;;;;;;;8.95;3.13;;;;;;;12.53;100.00;101113.59;5025918;28;20072;-68
2023/08/08 04:49:04;;;;;;;12.75;3.72;;;;;;;12.58;100.00;101103.50;5019742;28;20045;-69
2023/08/08 04:51:29;;;;;;;9.25;3.92;;;;;;;12.63;100.00;101101.22;5018221;28;20100;-69
2023/08/08 04:53:55;;;;;;;12.55;3.85;;;;;;;12.69;100.00;101110.16;5024064;28;20557;-67
2023/08/08 04:56:20;;;;;;;10.55;3.47;;;;;;;12.73;100.00;101106.25;5023044;28;20037;-69
2023/08/08 04:58:46;;;;;;;13.82;4.45;;;;;;;12.79;100.00;101105.59;5022644;28;20033;-69
2023/08/08 05:01:14;;;;;;;17.27;4.25;;;;;;;12.72;100.00;101112.47;5019683;28;20110;-69
2023/08/08 05:03:39;;;;;;;11.50;4.50;;;;;;;12.72;100.00;101104.66;5024364;28;20041;-69
2023/08/08 05:06:05;;;;;;;17.38;4.55;;;;;;;12.73;100.00;101111.47;5021609;28;20179;-69
2023/08/08 05:08:31;;;;;;;14.35;4.15;;;;;;;12.75;100.00;101105.16;5021629;28;20033;-70
2023/08/08 05:10:56;;;;;;;12.32;4.20;;;;;;;12.89;100.00;101106.28;5021255;28;20530;-69
2023/08/08 05:13:22;;;;;;;13.18;4.57;;;;;;;12.96;100.00;101106.41;5022425;28;20048;-69
2023/08/08 05:15:47;;;;;;;15.20;3.97;;;;;;;12.87;100.00;101104.81;5018419;28;20043;-70
2023/08/08 05:18:12;;;;;;;11.13;3.85;;;;;;;12.89;100.00;101108.88;5000411;28;20045;-69
2023/08/08 05:20:38;;;;;;;16.65;4.05;;;;;;;12.94;100.00;101104.00;5002314;28;20042;-69
2023/08/08 05:23:04;;;;;;;12.30;3.80;;;;;;;12.98;100.00;101109.69;5000879;28;20045;-69
2023/08/08 05:25:29;;;;;;;13.55;3.95;;;;;;;12.97;100.00;101111.47;4999745;28;20811;-70
2023/08/08 05:27:55;;;;;;;13.63;4.68;;;;;;;13.10;100.00;101112.75;4999700;28;20045;-68
2023/08/08 05:30:21;;;;;;;14.43;4.68;;;;;;;12.98;100.00;101113.09;4999741;28;20092;-68
2023/08/08 05:32:46;;;;;;;14.73;5.03;;;;;;;12.99;100.00;101111.31;5004609;28;20373;-69
2023/08/08 05:35:12;;;;;;;15.90;5.32;;;;;;;13.07;100.00;101107.88;5002038;28;20053;-69
2023/08/08 05:37:37;;;;;;;16.75;5.75;;;;;;;13.07;100.00;101113.09;5000509;28;20108;-69
2023/08/08 05:40:05;;;;;;;18.70;5.70;;;;;;;13.23;100.00;101113.88;5000159;28;20057;-69
2023/08/08 05:42:31;;;;;;;19.92;5.47;;;;;;;13.25;100.00;101108.50;5000979;28;20042;-69
2023/08/08 05:44:57;;;;;;;14.63;4.82;;;;;;;13.25;100.00;101108.50;5003162;28;20029;-69
2023/08/08 05:47:22;;;;;;;16.50;4.55;;;;;;;13.29;100.00;101106.38;4995500;28;20049;-69
2023/08/08 05:49:48;;;;;;;14.55;4.93;;;;;;;13.25;100.00;101108.50;4997280;28;20044;-68
2023/08/08 05:52:13;;;;;;;13.50;4.63;;;;;;;13.33;100.00;101108.50;4997693;28;20111;-68
2023/08/08 05:54:39;;;;;;;17.02;5.00;;;;;;;13.27;100.00;101108.34;5000199;28;20092;-69
2023/08/08 05:57:04;;;;;;;10.45;4.40;;;;;;;13.36;100.00;101117.78;5011184;28;20057;-69
2023/08/08 05:59:30;;;;;;;15.10;4.97;;;;;;;13.37;100.00;101119.41;5021211;28;20534;-68
2023/08/08 06:01:55;;;;;;;12.15;4.25;;;;;;;13.41;100.00;101124.13;5018375;28;20038;-69
2023/08/08 06:04:21;;;;;;;10.30;4.30;;;;;;;13.55;100.00;101116.59;5017771;28;20048;-69
2023/08/08 06:06:48;;;;;;;18.50;4.05;;;;;;;13.58;100.00;101121.47;5022724;28;20045;-68
2023/08/08 06:09:15;;;;;;;13.43;4.30;;;;;;;13.53;100.00;101119.38;5021372;28;20051;-69
2023/08/08 06:11:40;;;;;;;15.75;4.72;;;;;;;13.50;100.00;101121.50;5022610;28;20049;-70
2023/08/08 06:14:05;;;;;;;15.15;4.00;;;;;;;13.48;100.00;101121.66;5020418;28;20033;-69
2023/08/08 06:16:31;;;;;;;13.45;4.05;;;;;;;13.56;100.00;101120.81;5018494;28;20037;-68
2023/08/08 06:18:56;;;;;;;17.13;4.30;;;;;;;13.63;100.00;101124.38;5023247;28;20037;-69
2023/08/08 06:21:22;;;;;;;15.23;3.97;;;;;;;13.76;100.00;101129.06;5022935;28;20092;-68
2023/08/08 06:23:47;;;;;;;14.73;4.20;;;;;;;13.70;100.00;101127.16;5019810;28;20041;-69
2023/08/08 06:26:13;;;;;;;11.48;3.60;;;;;;;13.79;100.00;101129.53;5019765;28;20041;-69
2023/08/08 06:28:39;;;;;;;12.10;3.75;;;;;;;13.81;100.00;101122.38;5017199;28;20034;-69
2023/08/08 06:31:04;;;;;;;12.55;3.90;;;;;;;13.93;100.00;101130.63;5019779;28;20097;-69
2023/08/08 06:33:30;;;;;;;18.27;6.72;;;;;;;14.09;100.00;101131.53;5019056;28;20041;-69
2023/08/08 06:35:56;;;;;;;14.85;4.25;;;;;;;14.32;100.00;101134.19;5019842;28;20033;-68
2023/08/08 06:38:21;;;;;;;17.80;6.20;;;;;;;14.46;100.00;101143.06;5020077;28;20037;-67
2023/08/08 06:40:46;;;;;;;18.40;5.65;;;;;;;14.70;100.00;101142.91;5015396;28;20030;-68
2023/08/08 06:43:12;;;;;;;12.15;4.22;;;;;;;14.91;100.00;101139.63;5018606;28;20037;-69
2023/08/08 06:45:38;;;;;;;12.68;4.88;;;;;;;15.07;100.00;101141.31;5016632;28;21010;-69
2023/08/08 06:48:04;;;;;;;13.60;4.20;;;;;;;14.87;100.00;101137.56;5017980;28;20159;-67
2023/08/08 06:50:29;;;;;;;12.75;4.90;;;;;;;14.70;100.00;101135.09;5015407;28;20049;-68
2023/08/08 06:52:55;;;;;;;14.57;4.72;;;;;;;14.79;100.00;101141.06;5003661;28;20045;-70
2023/08/08 06:55:20;;;;;;;13.45;4.28;;;;;;;14.72;100.00;101142.75;4996459;28;20030;-69
2023/08/08 06:57:46;;;;;;;11.38;4.00;;;;;;;14.92;100.00;101135.25;5002323;28;20037;-68
2023/08/08 07:00:12;;;;;;;10.13;3.83;;;;;;;15.09;99.40;101135.91;5004290;28;20041;-69
2023/08/08 07:02:39;;;;;;;11.05;3.78;;;;;;;15.11;99.45;101134.75;5003359;28;20041;-69
2023/08/08 07:05:04;;;;;;;13.25;3.63;;;;;;;15.26;98.49;101132.16;5003749;28;20553;-70
2023/08/08 07:07:32;;;;;;;14.23;3.75;;;;;;;15.31;98.60;101136.84;5004803;28;20132;-70
2023/08/08 07:09:58;;;;;;;12.68;3.80;;;;;;;15.46;97.71;101129.81;4997294;28;20052;-70
2023/08/08 07:12:23;;;;;;;11.52;3.70;;;;;;;15.62;96.17;101126.22;5002223;28;20050;-69
2023/08/08 07:14:49;;;;;;;9.50;3.17;;;;;;;15.64;97.29;101126.03;5007784;28;20029;-69
2023/08/08 07:17:14;;;;;;;12.07;3.38;;;;;;;15.62;96.73;101133.25;4996425;28;20152;-70
2023/08/08 07:19:41;;;;;;;11.50;3.67;;;;;;;15.48;97.25;101117.41;5000620;28;20036;-68
2023/08/08 07:22:06;;;;;;;16.98;4.35;;;;;;;15.50;97.92;101127.66;5000282;28;20096;-69
2023/08/08 07:24:32;;;;;;;9.95;3.50;;;;;;;15.58;96.57;101120.53;4997874;28;20030;-70
2023/08/08 07:26:58;;;;;;;14.23;3.28;;;;;;;15.81;95.35;101121.47;4998458;28;20046;-69
2023/08/08 07:29:25;;;;;;;12.88;3.30;;;;;;;16.22;92.60;101123.50;4994271;28;20072;-70
2023/08/08 07:31:54;;;;;;;14.65;3.78;;;;;;;16.14;92.90;101125.28;5003676;28;20085;-70
2023/08/08 07:34:20;;;;;;;16.73;2.80;;;;;;;16.29;92.71;101120.00;5000508;28;20400;-69
2023/08/08 07:36:47;;;;;;;7.30;3.00;;;;;;;16.59;92.87;101122.47;5003393;28;20516;-69
2023/08/08 07:39:12;;;;;;;9.57;3.58;;;;;;;16.57;92.26;101121.84;4998787;28;20511;-69
2023/08/08 07:41:38;;;;;;;11.73;2.75;;;;;;;16.46;91.39;101125.78;5002230;28;20121;-69
2023/08/08 07:44:04;;;;;;;12.23;3.17;;;;;;;16.40;91.69;101117.88;5001103;28;20088;-68
2023/08/08 07:46:29;;;;;;;11.68;2.67;;;;;;;16.44;92.25;101124.34;5003134;28;20034;-70
2023/08/08 07:48:55;;;;;;;16.27;3.03;;;;;;;16.38;93.64;101131.13;5004728;28;20049;-70
2023/08/08 07:51:20;;;;;;;14.65;2.80;;;;;;;16.51;92.41;101125.22;5009002;28;20030;-69
2023/08/08 07:53:46;;;;;;;10.85;2.78;;;;;;;16.61;93.05;101119.66;5014895;28;20404;-70
2023/08/08 07:56:11;;;;;;;6.90;2.50;;;;;;;16.87;91.45;101103.41;5015053;28;20052;-69
2023/08/08 07:58:37;;;;;;;8.45;2.95;;;;;;;16.78;89.27;101117.59;5019762;28;20033;-69
2023/08/08 08:01:02;;;;;;;12.05;2.85;;;;;;;16.81;90.21;101114.63;5016904;28;20661;-70
2023/08/08 08:03:28;;;;;;;9.43;2.70;;;;;;;17.04;89.04;101109.16;5019878;28;20053;-69
2023/08/08 08:05:53;;;;;;;9.23;2.80;;;;;;;17.14;88.20;101114.88;5014886;28;20068;-70
2023/08/08 08:08:19;;;;;;;15.43;2.95;;;;;;;17.30;87.39;101117.19;4996500;28;20029;-69
2023/08/08 08:10:45;;;;;;;8.80;2.72;;;;;;;17.66;86.26;101117.97;5000315;28;20103;-69
2023/08/08 08:13:11;;;;;;;9.90;3.05;;;;;;;18.03;84.17;101108.06;5001567;28;20030;-69
2023/08/08 08:15:37;;;;;;;8.15;2.50;;;;;;;18.05;84.12;101114.72;5002361;28;20041;-69
2023/08/08 08:18:03;;;;;;;11.95;3.42;;;;;;;17.77;83.77;101106.13;5005817;28;20057;-71
2023/08/08 08:20:28;;;;;;;15.00;3.75;;;;;;;17.70;85.39;101109.53;5002629;28;20045;-70
2023/08/08 08:22:54;;;;;;;8.90;3.45;;;;;;;17.62;85.39;101108.91;5005115;28;20053;-70
2023/08/08 08:25:19;;;;;;;10.38;3.58;;;;;;;17.82;86.21;101111.59;5003818;28;20034;-69
2023/08/08 08:27:45;;;;;;;10.27;3.42;;;;;;;17.72;85.27;101114.56;5009639;28;20056;-70
2023/08/08 08:30:11;;;;;;;7.15;2.83;;;;;;;17.62;86.57;101112.31;5004088;28;20034;-72
2023/08/08 08:32:39;;;;;;;10.68;2.72;;;;;;;17.43;86.90;101113.03;5005669;28;20041;-70
2023/08/08 08:35:06;;;;;;;9.57;2.67;;;;;;;17.43;87.74;101123.53;5009496;28;20763;-70
2023/08/08 08:37:31;;;;;;;10.45;2.80;;;;;;;17.42;87.49;101127.97;5003559;28;20037;-71
2023/08/08 08:39:57;;;;;;;10.93;2.72;;;;;;;17.27;87.30;101120.22;5006678;28;20045;-69
2023/08/08 08:42:23;;;;;;;16.00;2.60;;;;;;;17.29;88.07;101117.38;5003673;28;20112;-69
2023/08/08 08:44:49;;;;;;;11.55;2.78;;;;;;;17.60;87.19;101116.16;5005152;28;20044;-70
2023/08/08 08:47:18;;;;;;;13.68;3.13;;;;;;;17.56;87.99;101118.34;5003437;28;20037;-69
2023/08/08 08:49:45;;;;;;;12.48;3.35;;;;;;;17.63;86.64;101113.94;5006344;28;20121;-69
2023/08/08 08:52:11;;;;;;;11.13;3.15;;;;;;;17.68;84.84;101114.16;5004930;28;20463;-71
2023/08/08 08:54:37;;;;;;;9.32;2.70;;;;;;;17.76;84.67;101101.88;5003344;28;20038;-71
2023/08/08 08:57:02;;;;;;;12.55;3.40;;;;;;;18.00;82.88;101111.09;5006114;28;20050;-70
2023/08/08 08:59:28;;;;;;;7.85;2.35;;;;;;;18.20;81.72;101109.31;5005413;28;20149;-70
2023/08/08 09:01:53;;;;;;;9.82;3.20;;;;;;;18.18;81.35;101116.59;5005744;28;20049;-70
2023/08/08 09:04:20;;;;;;;13.18;3.88;;;;;;;18.35;81.27;101106.53;5005928;28;20610;-70
2023/08/08 09:06:47;;;;;;;9.63;2.45;;;;;;;18.43;81.97;101106.31;5004841;28;20045;-71
2023/08/08 09:09:16;;;;;;;8.90;2.40;;;;;;;18.87;80.97;101109.38;5006578;28;20042;-70
2023/08/08 09:11:54;;;;;;;9.80;3.70;;;;;;;18.86;79.14;101116.47;5003702;28;20132;-70
2023/08/08 09:14:22;;;;;;;7.38;2.63;;;;;;;19.03;78.28;101102.91;5008093;28;20037;-70
2023/08/08 09:16:48;;;;;;;10.77;2.58;;;;;;;19.44;78.15;101110.50;5005344;28;20066;-70
2023/08/08 09:19:15;;;;;;;11.48;2.97;;;;;;;19.68;76.18;101092.41;5000433;28;20038;-70
2023/08/08 09:21:41;;;;;;;9.65;2.75;;;;;;;19.85;76.37;101098.00;5002870;28;20041;-70
2023/08/08 09:24:07;;;;;;;6.72;2.40;;;;;;;20.06;73.16;101093.44;5006290;28;21364;-68
2023/08/08 09:26:34;;;;;;;9.93;2.35;;;;;;;20.02;73.68;101099.16;5000606;28;20050;-70
2023/08/08 09:29:00;;;;;;;10.43;2.70;;;;;;;19.69;75.38;101101.13;5002704;28;20457;-70
2023/08/08 09:31:26;;;;;;;7.10;2.60;;;;;;;19.63;75.44;101113.28;5003120;28;20030;-70
2023/08/08 09:33:53;;;;;;;8.13;2.53;;;;;;;19.45;75.20;101106.03;5001001;28;20412;-69
2023/08/08 09:36:19;;;;;;;11.05;2.22;;;;;;;19.45;74.72;101111.31;5001936;28;20444;-70
2023/08/08 09:38:45;;;;;;;12.57;2.33;;;;;;;19.36;74.70;101102.81;5009192;28;20034;-70
2023/08/08 09:41:11;;;;;;;6.75;2.35;;;;;;;19.42;74.60;101107.28;5000445;28;20026;-71
2023/08/08 09:43:37;;;;;;;9.20;1.98;;;;;;;19.30;74.47;101108.13;5004197;28;20049;-71
2023/08/08 09:46:02;;;;;;;10.27;2.15;;;;;;;19.26;76.05;101111.16;5000340;28;20050;-71
2023/08/08 09:48:32;;;;;;;7.07;2.13;;;;;;;19.18;73.72;101100.88;5001807;28;20105;-70
2023/08/08 09:50:59;;;;;;;8.98;2.22;;;;;;;19.21;74.48;101108.34;5001794;28;20037;-70
2023/08/08 09:53:27;;;;;;;12.48;2.05;;;;;;;18.97;74.66;101109.78;5003075;28;20056;-71
2023/08/08 09:55:54;;;;;;;9.52;1.70;;;;;;;18.95;75.42;101111.81;5004647;28;20057;-71
2023/08/08 09:58:20;;;;;;;13.30;1.95;;;;;;;18.95;73.26;101116.25;5023168;28;20038;-69
2023/08/08 10:00:46;;;;;;;8.55;2.10;;;;;;;18.86;74.63;101120.91;5018640;28;20639;-71
2023/08/08 10:03:12;;;;;;;8.05;2.28;;;;;;;18.73;76.61;101119.06;5022401;28;20116;-71
2023/08/08 10:05:38;;;;;;;9.52;2.03;;;;;;;18.80;75.00;101122.53;5022424;28;20125;-69
2023/08/08 10:08:04;;;;;;;10.00;1.80;;;;;;;18.62;75.76;101117.03;5020612;28;20033;-71
2023/08/08 10:10:31;;;;;;;6.65;1.75;;;;;;;18.44;76.84;101125.50;5019471;28;20180;-71
2023/08/08 10:12:56;;;;;;;6.35;2.35;;;;;;;18.24;77.41;101123.66;5023515;28;20033;-70
2023/08/08 10:15:27;;;;;;;12.43;2.22;;;;;;;18.10;78.98;101122.00;5021020;28;20463;-69
2023/08/08 10:17:57;;;;;;;7.82;2.00;;;;;;;18.04;79.64;101125.41;5019527;28;20038;-70
2023/08/08 10:20:24;;;;;;;7.20;2.38;;;;;;;18.10;78.51;101114.13;5019374;28;20537;-70
2023/08/08 10:22:52;;;;;;;46.13;18.15;;;;;;;17.99;80.30;101109.44;5021312;28;20037;-70
2023/08/08 10:25:26;;;;;;;10.88;3.42;;;;;;;17.92;79.24;101117.31;5020689;28;20080;-70
2023/08/08 10:28:05;;;;;;;11.77;2.55;;;;;;;17.81;80.77;101115.22;5020246;28;20053;-70
2023/08/08 10:30:44;;;;;;;8.45;2.65;;;;;;;17.75;82.13;101116.00;5018073;28;20049;-69
2023/08/08 10:33:20;;;;;;;6.30;2.53;;;;;;;17.57;86.39;101122.56;5021146;28;20059;-70
2023/08/08 10:36:03;;;;;;;6.40;3.10;;;;;;;17.50;87.53;101124.38;5020895;28;20615;-71
2023/08/08 10:38:43;;;;;;;7.70;2.30;;;;;;;17.56;89.29;101120.16;5019557;28;20037;-69
2023/08/08 10:41:14;;;;;;;6.20;2.25;;;;;;;17.49;90.23;101115.69;5019389;28;20033;-70
2023/08/08 10:43:51;;;;;;;11.30;2.85;;;;;;;17.38;91.35;101120.66;5020795;28;20519;-70
2023/08/08 10:46:24;;;;;;;11.20;2.63;;;;;;;17.38;90.48;101121.47;5019017;28;20757;-71
2023/08/08 10:48:55;;;;;;;11.43;2.97;;;;;;;17.40;91.54;101123.91;5023836;28;20037;-70
2023/08/08 10:51:21;;;;;;;10.63;2.88;;;;;;;17.74;90.19;101112.56;5017499;28;20041;-71
2023/08/08 10:53:50;;;;;;;11.13;2.92;;;;;;;17.97;89.99;101114.91;5020438;28;20033;-70
2023/08/08 10:56:18;;;;;;;11.00;2.67;;;;;;;18.14;88.05;101110.13;5018905;28;20040;-70
2023/08/08 10:58:48;;;;;;;9.02;3.28;;;;;;;18.23;85.95;101110.72;5020056;28;20049;-70
2023/08/08 11:01:14;;;;;;;9.52;2.40;;;;;;;18.26;82.53;101120.84;5019419;28;20038;-69
2023/08/08 11:03:41;;;;;;;8.35;2.63;;;;;;;18.35;83.89;101114.41;5018250;28;20064;-70
2023/08/08 11:06:08;;;;;;;8.95;2.47;;;;;;;18.28;83.69;101116.19;5019780;28;20048;-70
2023/08/08 11:08:35;;;;;;;7.28;2.50;;;;;;;18.40;83.40;101114.63;5021624;28;20048;-69
2023/08/08 11:11:02;;;;;;;8.38;2.55;;;;;;;18.43;80.65;101121.28;5017569;28;20055;-70
2023/08/08 11:13:28;;;;;;;8.05;2.08;;;;;;;18.31;81.08;101121.06;5020632;28;20069;-70